Terminal Aerodrome Forecast
Issued by NWS Pendleton, OR

Home | Current Version | Previous Version | Text Only | Print | Product List | Glossary On
Versions: 1 2 3 4 5 6 7 8 9 10 11 12 13 14
000
FTUS46 KPDT 102300
TAFPDT
TAF
KPDT 102320Z 1100/1124 31011KT P6SM SKC
     FM110400 15006KT P6SM SKC
     FM111600 28006KT P6SM SKC
     FM111900 31009KT P6SM FEW250=

USA.gov is the U.S. government's official web portal to all federal, state and local government web resources and services.